Time;durP1;ratioP1;P1;durP2;ratioP2;P2;SDS_P1;SDS_P2;PMS_P1;PMS_P2;Temp;Humidity;BMP_temperature;BMP_pressure;BME280_temperature;BME280_humidity;BME280_pressure;Samples;Min_cycle;Max_cycle;Signal;HPM_P1;HPM_P2
2023/09/13 13:37:07;;;;;;;12.60;8.50;;;;;;;30.78;38.98;96865.85;106007;1249;106946;-90
2023/09/13 13:40:16;;;;;;;17.40;7.90;;;;;;;30.63;39.66;96865.24;104667;1276;99019;-88
2023/09/13 13:43:26;;;;;;;17.90;8.30;;;;;;;30.42;39.72;96868.68;103497;1282;98862;-88
2023/09/13 13:58:49;;;;;;;16.10;8.50;;;;;;;29.71;41.77;96855.41;101830;1294;636006;-81
2023/09/13 14:01:18;;;;;;;13.30;9.10;;;;;;;29.63;42.53;96851.73;104156;1272;95945;-82
2023/09/13 14:03:45;;;;;;;12.60;9.60;;;;;;;29.51;43.27;96849.41;103898;1273;95939;-82
2023/09/13 14:06:13;;;;;;;15.20;10.20;;;;;;;29.45;43.87;96851.30;104945;1257;99461;-82
2023/09/13 14:08:41;;;;;;;18.20;11.30;;;;;;;29.45;44.52;96853.29;104947;1263;101382;-81
2023/09/13 14:11:08;;;;;;;18.10;10.70;;;;;;;29.39;44.49;96854.59;104949;1257;100200;-82
2023/09/13 14:13:36;;;;;;;18.30;11.20;;;;;;;29.28;44.34;96852.02;105031;1257;170593;-80
2023/09/13 14:16:04;;;;;;;14.30;10.10;;;;;;;29.18;44.80;96846.38;105296;1255;95918;-80
2023/09/13 14:18:32;;;;;;;17.70;9.90;;;;;;;29.10;44.78;96842.86;105273;1256;99682;-81
2023/09/13 14:20:59;;;;;;;16.70;10.60;;;;;;;29.00;44.92;96838.05;105257;1265;100292;-80
2023/09/13 14:23:27;;;;;;;20.30;10.40;;;;;;;28.90;45.20;96838.75;105258;1267;98991;-80
2023/09/13 14:25:55;;;;;;;22.80;11.60;;;;;;;28.82;45.39;96837.45;105270;1257;96132;-80
2023/09/13 14:28:22;;;;;;;16.50;11.20;;;;;;;28.76;45.56;96837.48;105273;1254;95869;-80
2023/09/13 14:30:53;;;;;;;18.20;11.30;;;;;;;28.68;45.87;96835.80;105209;1257;100567;-80
2023/09/13 14:33:22;;;;;;;17.70;11.40;;;;;;;28.62;46.33;96832.63;105249;1257;100047;-80
2023/09/13 14:35:49;;;;;;;15.70;10.20;;;;;;;28.57;46.37;96827.84;105349;1256;100065;-81
2023/09/13 14:38:20;;;;;;;19.60;12.30;;;;;;;28.53;46.46;96828.64;105249;1264;95785;-80
2023/09/13 14:40:48;;;;;;;19.60;11.10;;;;;;;28.55;46.49;96828.80;105154;1254;96804;-80
2023/09/13 14:43:15;;;;;;;18.30;11.30;;;;;;;28.59;46.50;96828.41;105118;1264;101071;-80
2023/09/13 14:49:24;;;;;;;14.80;9.70;;;;;;;28.72;46.72;96826.96;105484;1274;98953;-80
2023/09/13 14:51:52;;;;;;;21.30;10.30;;;;;;;28.78;46.59;96832.11;105320;1256;95880;-84
2023/09/13 14:54:19;;;;;;;13.60;9.80;;;;;;;28.82;46.33;96832.09;105303;1256;95921;-84
2023/09/13 14:56:48;;;;;;;14.60;9.50;;;;;;;28.84;46.24;96833.33;105042;1257;100867;-84
2023/09/13 14:59:17;;;;;;;12.00;9.00;;;;;;;28.89;46.33;96833.15;105116;1256;101555;-85
2023/09/13 15:01:45;;;;;;;14.20;9.40;;;;;;;28.94;46.27;96835.00;104976;1260;99982;-84
2023/09/13 15:04:14;;;;;;;12.60;9.80;;;;;;;28.98;46.43;96836.23;104880;1251;96040;-84
2023/09/13 15:06:42;;;;;;;13.80;10.10;;;;;;;28.96;46.48;96833.27;106396;1256;97231;-85
2023/09/13 15:09:10;;;;;;;18.00;10.30;;;;;;;28.94;46.77;96831.20;105053;1257;100864;-85
2023/09/13 15:11:41;;;;;;;16.30;9.80;;;;;;;28.89;46.66;96831.32;105127;1270;101314;-80
2023/09/13 15:14:10;;;;;;;19.00;9.70;;;;;;;28.86;46.88;96830.43;104904;1259;100109;-80
2023/09/13 15:16:38;;;;;;;14.00;8.50;;;;;;;28.85;46.93;96831.67;105245;1256;97188;-80
2023/09/13 15:19:06;;;;;;;16.00;9.10;;;;;;;28.85;46.92;96833.51;105253;1256;95846;-80
2023/09/13 15:21:34;;;;;;;11.20;8.90;;;;;;;28.84;46.51;96829.50;105194;1256;99894;-80
2023/09/13 15:24:02;;;;;;;14.30;9.30;;;;;;;28.81;46.46;96831.61;105243;1256;100334;-80
2023/09/13 15:26:29;;;;;;;11.80;9.60;;;;;;;28.79;46.43;96827.70;105253;1257;99943;-79
2023/09/13 15:28:58;;;;;;;17.50;10.10;;;;;;;28.75;46.32;96829.60;105208;1267;95808;-79
2023/09/13 15:31:29;;;;;;;14.90;9.90;;;;;;;28.72;46.18;96827.83;105182;1257;96781;-80
2023/09/13 15:33:58;;;;;;;10.50;9.30;;;;;;;28.65;46.02;96827.09;104819;1260;100887;-80
2023/09/13 15:36:26;;;;;;;10.50;9.00;;;;;;;28.59;46.74;96833.34;105138;1256;99365;-79
2023/09/13 15:38:53;;;;;;;13.80;9.40;;;;;;;28.55;46.96;96832.37;105207;1256;99983;-80
2023/09/13 15:41:21;;;;;;;14.80;9.50;;;;;;;28.45;46.77;96835.75;105221;1257;96503;-79
2023/09/13 15:43:49;;;;;;;14.20;9.40;;;;;;;28.35;46.84;96836.14;105194;1257;95902;-80
2023/09/13 15:46:16;;;;;;;15.80;9.10;;;;;;;28.24;47.20;96841.09;105238;1264;101047;-80
2023/09/13 15:48:44;;;;;;;12.00;9.00;;;;;;;28.14;47.72;96840.74;105197;1251;100357;-79
2023/09/13 15:51:12;;;;;;;11.40;8.70;;;;;;;28.06;48.16;96839.40;105201;1255;98721;-80
2023/09/13 15:53:41;;;;;;;13.50;8.40;;;;;;;27.94;48.53;96838.36;105274;1257;95837;-80
2023/09/13 15:56:09;;;;;;;9.90;7.80;;;;;;;27.82;49.12;96835.69;104794;1263;96306;-79
2023/09/13 15:58:36;;;;;;;12.70;8.70;;;;;;;27.75;49.54;96834.77;104811;1262;100561;-80
2023/09/13 16:01:04;;;;;;;14.70;8.90;;;;;;;27.57;49.87;96830.88;104832;1260;100069;-80
2023/09/13 16:03:32;;;;;;;13.90;9.10;;;;;;;27.37;50.61;96831.45;104787;1262;99097;-79
2023/09/13 16:06:00;;;;;;;9.50;8.60;;;;;;;27.23;50.80;96830.41;104793;1270;96824;-79
2023/09/13 16:08:27;;;;;;;16.20;9.10;;;;;;;27.14;50.93;96829.50;104749;1257;96836;-83
2023/09/13 16:10:55;;;;;;;11.90;9.30;;;;;;;26.98;51.26;96831.47;104694;1260;100887;-84
2023/09/13 16:13:23;;;;;;;14.70;9.40;;;;;;;26.83;51.76;96829.64;104655;1257;100069;-83
2023/09/13 16:15:51;;;;;;;12.30;9.70;;;;;;;26.68;52.12;96828.11;104663;1270;100032;-82
2023/09/13 16:18:18;;;;;;;23.10;12.20;;;;;;;26.55;52.56;96827.69;104678;1263;96621;-85
2023/09/13 16:20:46;;;;;;;15.70;11.80;;;;;;;26.48;52.78;96835.86;104674;1263;96849;-85
2023/09/13 16:23:16;;;;;;;21.30;13.30;;;;;;;26.35;52.92;96836.06;104676;1260;99993;-85
2023/09/13 16:25:45;;;;;;;21.40;11.70;;;;;;;26.16;53.42;96837.80;104447;1269;99980;-84
2023/09/13 16:28:12;;;;;;;17.90;12.00;;;;;;;25.96;53.81;96839.21;104948;1260;100127;-84
2023/09/13 16:30:40;;;;;;;14.90;10.30;;;;;;;25.78;54.09;96836.52;105094;1258;96115;-84
2023/09/13 16:33:08;;;;;;;14.30;10.90;;;;;;;25.62;54.00;96840.65;105146;1257;95831;-84
2023/09/13 16:35:36;;;;;;;17.70;10.90;;;;;;;25.43;54.45;96840.23;105070;1256;99909;-84
2023/09/13 16:38:04;;;;;;;14.10;11.90;;;;;;;25.24;54.73;96837.63;105104;1258;101431;-84
2023/09/13 16:40:32;;;;;;;14.90;12.10;;;;;;;25.11;54.90;96839.98;105072;1257;99992;-84
2023/09/13 16:43:00;;;;;;;14.60;12.40;;;;;;;24.94;54.92;96843.37;104793;1260;96071;-84
2023/09/13 16:45:28;;;;;;;18.40;12.20;;;;;;;24.77;55.06;96843.20;105122;1251;95927;-83
2023/09/13 16:47:56;;;;;;;18.50;11.40;;;;;;;24.64;55.42;96844.02;105148;1266;100760;-84
2023/09/13 16:50:23;;;;;;;19.00;11.90;;;;;;;24.58;55.58;96844.08;105113;1264;99275;-84
2023/09/13 16:52:51;;;;;;;17.80;11.50;;;;;;;24.48;55.88;96847.98;105086;1257;98903;-83
2023/09/13 16:55:19;;;;;;;16.20;12.50;;;;;;;24.22;56.26;96854.70;105083;1257;95844;-83
2023/09/13 16:57:46;;;;;;;20.20;13.20;;;;;;;23.99;56.74;96856.66;105061;1267;96007;-83
2023/09/13 17:00:14;;;;;;;15.10;11.60;;;;;;;23.90;57.05;96863.04;105112;1264;100998;-83
2023/09/13 17:02:42;;;;;;;14.50;11.90;;;;;;;23.86;57.47;96870.75;105087;1257;99160;-83
2023/09/13 17:05:09;;;;;;;15.00;11.80;;;;;;;23.81;57.85;96879.78;105084;1260;107356;-83
2023/09/13 17:07:37;;;;;;;14.10;12.60;;;;;;;23.66;58.10;96882.05;105105;1265;97159;-83
2023/09/13 17:10:06;;;;;;;19.50;13.50;;;;;;;23.59;58.35;96882.23;105079;1260;97079;-83
2023/09/13 17:12:34;;;;;;;19.40;14.20;;;;;;;23.54;58.31;96887.81;105120;1261;99512;-82
2023/09/13 17:15:03;;;;;;;24.70;15.00;;;;;;;23.45;58.34;96886.30;105078;1258;100590;-83
2023/09/13 17:17:31;;;;;;;20.10;15.80;;;;;;;23.36;58.41;96887.58;105094;1257;99090;-83
2023/09/13 17:19:59;;;;;;;22.80;14.00;;;;;;;23.27;58.34;96889.89;105150;1256;96193;-83
2023/09/13 17:22:27;;;;;;;25.60;15.60;;;;;;;23.20;58.93;96896.92;105105;1252;96146;-83
2023/09/13 17:24:54;;;;;;;18.10;15.20;;;;;;;23.17;59.25;96902.21;105080;1265;100072;-80
2023/09/13 17:27:22;;;;;;;21.90;15.70;;;;;;;23.09;59.61;96909.45;105090;1256;101931;-80
2023/09/13 17:29:50;;;;;;;19.50;15.20;;;;;;;23.00;59.81;96913.70;105058;1265;99921;-80
2023/09/13 17:32:18;;;;;;;22.20;16.60;;;;;;;22.93;59.89;96919.60;105083;1257;96173;-80
2023/09/13 17:34:45;;;;;;;23.50;15.80;;;;;;;22.91;60.06;96922.58;105075;1265;97189;-80
2023/09/13 17:37:14;;;;;;;22.20;15.90;;;;;;;22.87;59.98;96924.17;105105;1265;100841;-80
2023/09/13 17:39:41;;;;;;;23.80;15.40;;;;;;;22.82;60.02;96927.11;105079;1257;100295;-80
2023/09/13 17:42:09;;;;;;;20.00;14.40;;;;;;;22.74;60.01;96926.30;105081;1251;99971;-81
2023/09/13 17:44:37;;;;;;;19.30;14.30;;;;;;;22.63;60.01;96928.61;105056;1252;95866;-80
2023/09/13 17:47:06;;;;;;;19.40;15.10;;;;;;;22.56;60.18;96934.56;105112;1257;95822;-80
2023/09/13 17:49:34;;;;;;;23.20;15.40;;;;;;;22.43;60.41;96939.55;105054;1265;100932;-80
2023/09/13 17:52:01;;;;;;;20.70;13.40;;;;;;;22.23;60.63;96940.02;105069;1264;101554;-79
2023/09/13 17:54:29;;;;;;;17.20;13.90;;;;;;;22.16;60.76;96940.11;105089;1258;99548;-80
2023/09/13 17:56:57;;;;;;;21.80;13.50;;;;;;;22.15;60.93;96943.21;105068;1258;96703;-80
2023/09/13 17:59:24;;;;;;;18.60;14.20;;;;;;;22.13;60.95;96946.58;105116;1258;95873;-80
2023/09/13 18:01:52;;;;;;;19.60;13.40;;;;;;;22.12;61.02;96949.40;105069;1257;99941;-80
2023/09/13 18:04:20;;;;;;;17.40;13.00;;;;;;;22.07;61.03;96947.84;104679;1270;100893;-80
2023/09/13 18:06:48;;;;;;;16.50;14.10;;;;;;;21.93;61.05;96946.30;105051;1256;98742;-80
2023/09/13 18:09:16;;;;;;;21.40;13.30;;;;;;;21.80;61.34;96950.41;105065;1259;96586;-80
2023/09/13 18:11:46;;;;;;;17.40;13.60;;;;;;;21.78;61.60;96949.49;104867;1274;97086;-80
2023/09/13 18:14:14;;;;;;;17.80;13.50;;;;;;;21.80;61.68;96948.38;104708;1270;102111;-80
2023/09/13 18:16:42;;;;;;;16.50;13.60;;;;;;;21.80;61.74;96947.44;105071;1265;100318;-80
2023/09/13 18:19:10;;;;;;;16.00;13.70;;;;;;;21.79;61.89;96939.21;104782;1273;99082;-80
2023/09/13 18:21:40;;;;;;;19.30;14.20;;;;;;;21.73;61.85;96941.20;105064;1257;96695;-80
2023/09/13 18:24:09;;;;;;;17.50;14.90;;;;;;;21.66;62.01;96937.45;104847;1255;97074;-81
2023/09/13 18:26:37;;;;;;;23.50;15.50;;;;;;;21.62;62.38;96937.52;104720;1261;101218;-81
2023/09/13 18:29:05;;;;;;;20.90;15.90;;;;;;;21.54;62.57;96938.98;105056;1260;102144;-81
2023/09/13 18:31:34;;;;;;;19.80;15.50;;;;;;;21.35;62.72;96933.92;105035;1264;99058;-80
2023/09/13 18:34:03;;;;;;;19.60;15.60;;;;;;;21.27;62.90;96933.02;105075;1256;96564;-81
2023/09/13 18:36:32;;;;;;;21.30;16.00;;;;;;;21.26;63.09;96933.96;105125;1265;97780;-81
2023/09/13 18:39:00;;;;;;;20.60;15.10;;;;;;;21.21;63.28;96931.05;105354;1257;101018;-82
2023/09/13 18:41:29;;;;;;;25.00;15.10;;;;;;;21.19;63.43;96931.34;105244;1261;100395;-77
2023/09/13 18:43:59;;;;;;;20.60;15.70;;;;;;;21.17;63.50;96935.23;104764;1260;98920;-80
2023/09/13 18:46:27;;;;;;;19.50;15.60;;;;;;;21.18;63.52;96937.92;105227;1265;97884;-82
2023/09/13 18:48:56;;;;;;;22.80;16.40;;;;;;;21.16;63.61;96937.70;105080;1257;97890;-82
2023/09/13 18:51:25;;;;;;;25.10;15.50;;;;;;;21.13;63.65;96934.39;105161;1257;101293;-83
2023/09/13 18:53:54;;;;;;;24.30;16.20;;;;;;;21.02;64.14;96931.59;104562;1261;100961;-82
2023/09/13 18:56:23;;;;;;;23.30;16.10;;;;;;;20.80;64.17;96930.98;105104;1252;99027;-82
2023/09/13 18:58:51;;;;;;;23.90;15.60;;;;;;;20.73;64.36;96929.58;105046;1257;96660;-81
2023/09/13 19:01:20;;;;;;;22.00;16.40;;;;;;;20.74;64.56;96931.59;104843;1257;99524;-76
2023/09/13 19:03:49;;;;;;;24.10;16.30;;;;;;;20.72;64.67;96931.55;104728;1260;101655;-76
2023/09/13 19:06:18;;;;;;;23.70;17.60;;;;;;;20.58;64.99;96938.30;105075;1264;100302;-76
2023/09/13 19:08:50;;;;;;;25.90;19.10;;;;;;;20.44;65.07;96940.88;105051;1275;98940;-76
2023/09/13 19:11:18;;;;;;;21.00;17.30;;;;;;;20.42;65.36;96941.43;104795;1258;97419;-76
2023/09/13 19:13:49;;;;;;;21.10;16.30;;;;;;;20.43;65.43;96943.39;105090;1257;96973;-76
2023/09/13 19:16:17;;;;;;;25.60;17.60;;;;;;;20.39;65.54;96943.81;104844;1260;101624;-76
2023/09/13 19:18:48;;;;;;;20.40;16.50;;;;;;;20.32;65.60;96946.57;104757;1270;100643;-76
2023/09/13 19:21:17;;;;;;;22.40;16.90;;;;;;;20.30;65.71;96947.45;104789;1260;99183;-82
2023/09/13 19:23:46;;;;;;;21.90;16.90;;;;;;;20.28;66.08;96948.74;105058;1257;97168;-82
2023/09/13 19:26:15;;;;;;;23.60;17.20;;;;;;;20.21;66.18;96951.09;105117;1263;97477;-81
2023/09/13 19:28:44;;;;;;;23.90;17.00;;;;;;;20.19;66.47;96947.55;105121;1256;101262;-82
2023/09/13 19:31:12;;;;;;;23.70;18.00;;;;;;;20.10;66.68;96943.92;104927;1263;101513;-82
2023/09/13 19:33:44;;;;;;;23.30;18.90;;;;;;;20.07;66.87;96941.30;104811;1260;99563;-82
2023/09/13 19:36:12;;;;;;;26.20;19.10;;;;;;;20.09;67.04;96939.21;105119;1265;97502;-81
2023/09/13 19:38:42;;;;;;;23.40;19.30;;;;;;;20.09;67.09;96945.46;105214;1257;97073;-81
2023/09/13 19:41:15;;;;;;;22.20;19.60;;;;;;;20.05;67.34;96946.25;105186;1257;101863;-82
2023/09/13 19:43:44;;;;;;;23.70;18.80;;;;;;;19.94;67.42;96951.75;104885;1253;100426;-82
2023/09/13 19:46:13;;;;;;;25.60;18.70;;;;;;;19.91;67.51;96958.23;105258;1267;98634;-82
2023/09/13 19:48:42;;;;;;;22.00;18.70;;;;;;;19.90;67.78;96959.93;105167;1257;97164;-81
2023/09/13 19:51:12;;;;;;;25.10;17.90;;;;;;;19.88;67.95;96967.00;105187;1251;97073;-82
2023/09/13 19:53:42;;;;;;;27.70;18.20;;;;;;;19.85;67.88;96976.21;104695;1263;101540;-82
2023/09/13 19:56:11;;;;;;;23.50;18.00;;;;;;;19.86;67.99;96983.61;104957;1270;99998;-81
2023/09/13 19:58:44;;;;;;;23.30;17.50;;;;;;;19.87;67.97;96988.10;104871;1270;99009;-75
2023/09/13 20:01:13;;;;;;;29.00;18.80;;;;;;;19.90;68.14;96993.68;105171;1271;97139;-75
2023/09/13 20:03:42;;;;;;;26.50;17.90;;;;;;;19.92;68.13;96993.45;105160;1260;96830;-75
2023/09/13 20:06:13;;;;;;;23.60;17.60;;;;;;;19.92;68.40;96996.02;104784;1268;101125;-76
2023/09/13 20:08:41;;;;;;;24.20;18.30;;;;;;;19.89;68.48;96995.05;104804;1257;100349;-76
2023/09/13 20:11:10;;;;;;;24.60;18.10;;;;;;;19.89;68.62;96998.45;104836;1257;99306;-76
2023/09/13 20:13:40;;;;;;;27.50;18.70;;;;;;;19.87;69.02;97001.19;104756;1259;97278;-76
2023/09/13 20:16:09;;;;;;;23.10;18.20;;;;;;;19.76;69.13;97002.49;104993;1257;97804;-76
2023/09/13 20:18:37;;;;;;;25.10;18.20;;;;;;;19.71;69.20;97006.66;105076;1258;101540;-76
2023/09/13 20:21:06;;;;;;;27.80;19.30;;;;;;;19.69;69.27;97008.64;104799;1272;99504;-80
2023/09/13 20:23:34;;;;;;;26.70;18.60;;;;;;;19.69;69.39;97012.14;105080;1257;100056;-80
2023/09/13 20:26:03;;;;;;;23.70;18.40;;;;;;;19.70;69.38;97013.13;105103;1265;96632;-80
2023/09/13 20:28:32;;;;;;;23.80;18.50;;;;;;;19.73;69.47;97017.89;105111;1251;96984;-79
2023/09/13 20:31:00;;;;;;;22.20;18.20;;;;;;;19.69;69.62;97019.05;104906;1276;101355;-80
2023/09/13 20:33:30;;;;;;;25.80;19.30;;;;;;;19.63;69.78;97021.10;104824;1261;101373;-80
2023/09/13 20:36:01;;;;;;;25.40;18.80;;;;;;;19.64;69.85;97020.45;104736;1260;99113;-80
2023/09/13 20:38:28;;;;;;;24.60;19.70;;;;;;;19.66;69.90;97025.31;104837;1260;96675;-80
2023/09/13 20:40:56;;;;;;;27.00;19.90;;;;;;;19.66;70.00;97030.19;105047;1256;97061;-76
2023/09/13 20:43:24;;;;;;;22.50;19.60;;;;;;;19.61;70.33;97028.55;105125;1264;101224;-76
2023/09/13 20:45:52;;;;;;;26.10;20.20;;;;;;;19.56;70.33;97028.72;105059;1255;101165;-76
2023/09/13 20:48:20;;;;;;;26.40;20.80;;;;;;;19.56;70.46;97027.75;105090;1265;98663;-76
2023/09/13 20:50:51;;;;;;;31.60;21.90;;;;;;;19.55;70.41;97026.88;105105;1256;96597;-76
2023/09/13 20:53:20;;;;;;;28.40;21.20;;;;;;;19.51;70.74;97024.52;104812;1259;97896;-76
2023/09/13 20:55:49;;;;;;;29.60;22.10;;;;;;;19.42;70.99;97026.16;104878;1260;101723;-80
2023/09/13 20:58:16;;;;;;;30.80;22.70;;;;;;;19.36;71.18;97031.20;104525;1264;100534;-76
2023/09/13 21:00:47;;;;;;;33.80;23.60;;;;;;;19.36;71.01;97034.92;104743;1257;99038;-76
2023/09/13 21:03:15;;;;;;;35.00;24.90;;;;;;;19.37;71.19;97041.44;104765;1265;96635;-76
2023/09/13 21:05:42;;;;;;;29.30;22.80;;;;;;;19.37;71.13;97046.26;104779;1261;97450;-76
2023/09/13 21:08:12;;;;;;;30.20;22.40;;;;;;;19.39;71.17;97050.85;104773;1255;102188;-76
2023/09/13 21:10:39;;;;;;;29.50;21.80;;;;;;;19.39;71.15;97054.84;104792;1264;101492;-76
2023/09/13 21:13:07;;;;;;;30.00;21.30;;;;;;;19.40;71.31;97057.42;104743;1270;99982;-75
2023/09/13 21:15:36;;;;;;;28.60;21.60;;;;;;;19.40;71.41;97058.14;104754;1260;96830;-75
2023/09/13 21:18:04;;;;;;;26.80;21.00;;;;;;;19.38;71.71;97062.78;104754;1259;96997;-76
2023/09/13 21:20:32;;;;;;;24.30;20.80;;;;;;;19.32;71.93;97065.14;104749;1263;102266;-76
2023/09/13 21:23:00;;;;;;;23.70;20.40;;;;;;;19.27;71.93;97065.75;104749;1260;100632;-76
2023/09/13 21:25:27;;;;;;;25.30;21.30;;;;;;;19.26;72.20;97063.72;104902;1257;98514;-76
2023/09/13 21:27:55;;;;;;;25.80;21.30;;;;;;;19.23;72.26;97066.40;105041;1260;96561;-76
2023/09/13 21:30:23;;;;;;;25.10;21.30;;;;;;;19.22;72.25;97074.88;105107;1257;98217;-76
2023/09/13 21:32:50;;;;;;;28.20;23.30;;;;;;;19.22;72.34;97074.39;105116;1257;101359;-76
2023/09/13 21:35:19;;;;;;;27.40;22.10;;;;;;;19.20;72.48;97070.58;105128;1265;101374;-76
2023/09/13 21:37:46;;;;;;;30.70;24.60;;;;;;;19.15;72.69;97072.88;105106;1257;98714;-75
2023/09/13 21:40:15;;;;;;;27.80;23.70;;;;;;;19.11;72.79;97075.16;105047;1257;97495;-76
2023/09/13 21:42:43;;;;;;;28.30;23.50;;;;;;;19.07;72.78;97074.31;105117;1257;96990;-76
2023/09/13 21:45:11;;;;;;;31.90;25.50;;;;;;;19.06;72.88;97073.43;105077;1274;102151;-76
2023/09/13 21:47:38;;;;;;;29.40;24.80;;;;;;;19.05;73.07;97073.59;105066;1258;101452;-76
2023/09/13 21:50:07;;;;;;;33.10;24.50;;;;;;;19.04;73.21;97075.17;105085;1260;99916;-76
2023/09/13 21:52:34;;;;;;;34.80;27.40;;;;;;;19.03;73.22;97080.04;104757;1260;97701;-76
2023/09/13 21:55:02;;;;;;;31.40;26.10;;;;;;;19.03;73.21;97076.27;105069;1251;97090;-76
2023/09/13 21:57:30;;;;;;;34.70;26.70;;;;;;;19.02;73.33;97079.21;105124;1257;102487;-76
2023/09/13 21:59:58;;;;;;;35.00;27.00;;;;;;;18.99;73.71;97079.38;105074;1257;101536;-75
2023/09/13 22:02:25;;;;;;;35.50;26.30;;;;;;;18.91;73.88;97082.60;105088;1266;98656;-76
2023/09/13 22:04:53;;;;;;;33.80;25.50;;;;;;;18.88;73.83;97081.23;105092;1258;97879;-76
2023/09/13 22:07:21;;;;;;;33.80;25.10;;;;;;;18.88;73.76;97088.34;105046;1258;97063;-76
2023/09/13 22:09:48;;;;;;;34.00;26.40;;;;;;;18.88;73.92;97089.92;105085;1266;102096;-76
2023/09/13 22:12:16;;;;;;;27.50;24.40;;;;;;;18.86;74.10;97095.05;105127;1257;100025;-75
2023/09/13 22:14:44;;;;;;;30.20;24.20;;;;;;;18.79;74.15;97097.08;105034;1257;99864;-76
2023/09/13 22:17:12;;;;;;;28.60;23.30;;;;;;;18.76;74.31;97096.85;105085;1253;96561;-76
2023/09/13 22:19:39;;;;;;;30.80;22.90;;;;;;;18.72;74.55;97098.11;105103;1255;97104;-76
2023/09/13 22:22:07;;;;;;;29.50;22.80;;;;;;;18.65;74.37;97097.27;105071;1251;100894;-76
2023/09/13 22:24:36;;;;;;;25.80;21.90;;;;;;;18.64;74.33;97094.32;105096;1257;100680;-76
2023/09/13 22:27:04;;;;;;;29.10;22.40;;;;;;;18.66;74.37;97087.97;105061;1257;100170;-76
2023/09/13 22:29:33;;;;;;;31.10;22.30;;;;;;;18.63;74.73;97089.27;105076;1255;96557;-76
2023/09/13 22:32:01;;;;;;;25.90;21.90;;;;;;;18.59;75.00;97088.39;105138;1255;96966;-80
2023/09/13 22:34:29;;;;;;;29.00;21.40;;;;;;;18.53;74.94;97088.80;105028;1270;102164;-76
2023/09/13 22:36:57;;;;;;;24.10;20.10;;;;;;;18.53;74.65;97094.47;105093;1255;101178;-76
2023/09/13 22:39:24;;;;;;;24.60;20.80;;;;;;;18.56;74.71;97098.21;105060;1265;97884;-76
2023/09/13 22:41:52;;;;;;;25.80;22.00;;;;;;;18.57;75.01;97102.75;105075;1267;97553;-76
2023/09/13 22:44:20;;;;;;;30.00;22.40;;;;;;;18.56;75.02;97107.39;105069;1257;98436;-75
2023/09/13 22:46:47;;;;;;;25.20;21.00;;;;;;;18.56;75.24;97106.02;105110;1257;102034;-76
2023/09/13 22:49:15;;;;;;;26.60;20.90;;;;;;;18.53;75.16;97111.36;105063;1257;101484;-76
2023/09/13 22:51:45;;;;;;;24.30;20.90;;;;;;;18.54;75.03;97115.97;105068;1258;100130;-81
2023/09/13 22:54:13;;;;;;;26.80;22.70;;;;;;;18.55;75.14;97117.67;105108;1257;97381;-81
2023/09/13 22:56:41;;;;;;;23.60;21.00;;;;;;;18.54;75.41;97117.66;105099;1257;97028;-81
2023/09/13 22:59:08;;;;;;;26.20;22.10;;;;;;;18.52;75.53;97122.13;105199;1265;102520;-82
2023/09/13 23:01:36;;;;;;;27.90;22.20;;;;;;;18.48;75.51;97122.67;105032;1256;101588;-81
2023/09/13 23:04:04;;;;;;;23.50;20.90;;;;;;;18.45;75.91;97118.95;105117;1257;100056;-81
2023/09/13 23:06:32;;;;;;;24.60;20.70;;;;;;;18.41;75.88;97119.52;105111;1251;96593;-81
2023/09/13 23:09:01;;;;;;;23.90;20.70;;;;;;;18.37;76.13;97120.22;105091;1257;97324;-81
2023/09/13 23:11:28;;;;;;;25.80;20.60;;;;;;;18.34;75.82;97121.65;105117;1257;101359;-75
2023/09/13 23:13:58;;;;;;;25.00;21.00;;;;;;;18.37;75.84;97120.98;105094;1251;101598;-75
2023/09/13 23:16:29;;;;;;;29.70;21.20;;;;;;;18.39;75.92;97122.96;105083;1265;99024;-75
2023/09/13 23:18:58;;;;;;;24.00;20.80;;;;;;;18.42;75.93;97121.83;105109;1256;96576;-76
2023/09/13 23:21:25;;;;;;;26.10;21.90;;;;;;;18.45;75.98;97122.77;104849;1268;97006;-76
2023/09/13 23:23:53;;;;;;;25.70;21.20;;;;;;;18.44;76.19;97125.13;104809;1258;102290;-76
2023/09/13 23:26:21;;;;;;;27.00;21.50;;;;;;;18.42;76.47;97122.31;104796;1259;100553;-76
2023/09/13 23:28:49;;;;;;;24.00;21.30;;;;;;;18.39;76.45;97119.02;104754;1277;99091;-75
2023/09/13 23:31:18;;;;;;;24.90;22.10;;;;;;;18.39;76.43;97114.05;104660;1259;96657;-75
2023/09/13 23:33:47;;;;;;;24.30;21.70;;;;;;;18.42;76.32;97113.14;104803;1256;96716;-75
2023/09/13 23:36:15;;;;;;;25.50;21.60;;;;;;;18.41;76.44;97113.35;104867;1260;101350;-76
2023/09/13 23:38:44;;;;;;;26.60;21.50;;;;;;;18.41;76.58;97115.31;104795;1260;101561;-75
2023/09/13 23:41:16;;;;;;;25.60;21.30;;;;;;;18.39;76.58;97113.17;104772;1271;100094;-75
2023/09/13 23:43:46;;;;;;;29.00;21.60;;;;;;;18.40;76.60;97109.41;104784;1257;96735;-75
2023/09/13 23:46:15;;;;;;;25.50;21.10;;;;;;;18.39;76.91;97113.23;104606;1264;97175;-75
2023/09/13 23:48:43;;;;;;;24.90;21.20;;;;;;;18.36;76.82;97111.14;104782;1254;109492;-80
2023/09/13 23:51:15;;;;;;;25.70;20.90;;;;;;;18.36;76.78;97114.59;104861;1260;99988;-81
2023/09/13 23:53:48;;;;;;;25.50;21.20;;;;;;;18.36;77.15;97118.02;104785;1271;99101;-80
2023/09/13 23:56:19;;;;;;;25.60;21.10;;;;;;;18.32;77.48;97116.92;104848;1271;96842;-80
2023/09/13 23:58:47;;;;;;;27.70;20.90;;;;;;;18.29;77.32;97114.95;105134;1251;97899;-80
